sensor_id;sensor_type;location;lat;lon;timestamp;temperature;humidity
2577;DHT22;1298;51.252;6.802;2022-09-09T00:01:46;16.10;99.90
2577;DHT22;1298;51.252;6.802;2022-09-09T00:04:36;16.10;99.90
2577;DHT22;1298;51.252;6.802;2022-09-09T00:07:24;16.10;99.90
2577;DHT22;1298;51.252;6.802;2022-09-09T00:10:14;16.10;99.90
2577;DHT22;1298;51.252;6.802;2022-09-09T00:13:05;16.20;99.90
2577;DHT22;1298;51.252;6.802;2022-09-09T00:15:54;16.10;99.90
2577;DHT22;1298;51.252;6.802;2022-09-09T00:18:47;16.10;99.90
2577;DHT22;1298;51.252;6.802;2022-09-09T00:21:37;16.10;99.90
2577;DHT22;1298;51.252;6.802;2022-09-09T00:24:24;15.90;99.90
2577;DHT22;1298;51.252;6.802;2022-09-09T00:27:13;15.90;99.90
2577;DHT22;1298;51.252;6.802;2022-09-09T00:30:12;15.80;99.90
2577;DHT22;1298;51.252;6.802;2022-09-09T00:32:58;15.80;99.90
2577;DHT22;1298;51.252;6.802;2022-09-09T00:35:45;15.80;99.90
2577;DHT22;1298;51.252;6.802;2022-09-09T00:38:34;15.80;99.90
2577;DHT22;1298;51.252;6.802;2022-09-09T00:41:22;15.80;99.90
2577;DHT22;1298;51.252;6.802;2022-09-09T00:44:15;15.80;99.90
2577;DHT22;1298;51.252;6.802;2022-09-09T00:47:04;15.80;99.90
2577;DHT22;1298;51.252;6.802;2022-09-09T00:49:57;15.90;99.90
2577;DHT22;1298;51.252;6.802;2022-09-09T00:52:46;15.90;99.90
2577;DHT22;1298;51.252;6.802;2022-09-09T00:55:39;16.00;99.90
2577;DHT22;1298;51.252;6.802;2022-09-09T00:58:30;16.00;99.90
2577;DHT22;1298;51.252;6.802;2022-09-09T01:01:19;16.00;99.90
2577;DHT22;1298;51.252;6.802;2022-09-09T01:04:06;15.90;99.90
2577;DHT22;1298;51.252;6.802;2022-09-09T01:06:54;16.00;99.90
2577;DHT22;1298;51.252;6.802;2022-09-09T01:09:45;16.00;99.90
2577;DHT22;1298;51.252;6.802;2022-09-09T01:12:38;16.00;99.90
2577;DHT22;1298;51.252;6.802;2022-09-09T01:15:24;16.00;99.90
2577;DHT22;1298;51.252;6.802;2022-09-09T01:18:12;15.90;99.90
2577;DHT22;1298;51.252;6.802;2022-09-09T01:21:01;15.90;99.90
2577;DHT22;1298;51.252;6.802;2022-09-09T01:24:03;15.90;99.90
2577;DHT22;1298;51.252;6.802;2022-09-09T01:27:05;15.80;99.90
2577;DHT22;1298;51.252;6.802;2022-09-09T01:29:51;15.90;99.90
2577;DHT22;1298;51.252;6.802;2022-09-09T01:32:40;15.80;99.90
2577;DHT22;1298;51.252;6.802;2022-09-09T01:35:29;15.80;99.90
2577;DHT22;1298;51.252;6.802;2022-09-09T01:38:15;15.80;99.90
2577;DHT22;1298;51.252;6.802;2022-09-09T01:41:00;15.70;99.90
2577;DHT22;1298;51.252;6.802;2022-09-09T01:43:47;15.70;99.90
2577;DHT22;1298;51.252;6.802;2022-09-09T01:46:32;15.70;99.90
2577;DHT22;1298;51.252;6.802;2022-09-09T01:49:18;15.80;99.90
2577;DHT22;1298;51.252;6.802;2022-09-09T01:52:03;15.80;99.90
2577;DHT22;1298;51.252;6.802;2022-09-09T01:54:48;15.90;99.90
2577;DHT22;1298;51.252;6.802;2022-09-09T01:57:35;16.00;99.90
2577;DHT22;1298;51.252;6.802;2022-09-09T02:00:22;16.00;99.90
2577;DHT22;1298;51.252;6.802;2022-09-09T02:03:08;16.10;99.90
2577;DHT22;1298;51.252;6.802;2022-09-09T02:05:59;16.10;99.90
2577;DHT22;1298;51.252;6.802;2022-09-09T02:08:46;16.20;99.90
2577;DHT22;1298;51.252;6.802;2022-09-09T02:11:32;16.30;99.90
2577;DHT22;1298;51.252;6.802;2022-09-09T02:14:22;16.30;99.90
2577;DHT22;1298;51.252;6.802;2022-09-09T02:17:10;16.30;99.90
2577;DHT22;1298;51.252;6.802;2022-09-09T02:19:57;16.40;99.90
2577;DHT22;1298;51.252;6.802;2022-09-09T02:22:43;16.40;99.90
2577;DHT22;1298;51.252;6.802;2022-09-09T02:25:30;16.50;99.90
2577;DHT22;1298;51.252;6.802;2022-09-09T02:28:15;16.50;99.90
2577;DHT22;1298;51.252;6.802;2022-09-09T02:31:03;16.60;99.90
2577;DHT22;1298;51.252;6.802;2022-09-09T02:33:51;16.60;99.90
2577;DHT22;1298;51.252;6.802;2022-09-09T02:36:38;16.60;99.90
2577;DHT22;1298;51.252;6.802;2022-09-09T02:39:25;16.70;99.90
2577;DHT22;1298;51.252;6.802;2022-09-09T02:42:10;16.70;99.90
2577;DHT22;1298;51.252;6.802;2022-09-09T02:44:55;16.80;99.90
2577;DHT22;1298;51.252;6.802;2022-09-09T02:47:41;16.80;99.90
2577;DHT22;1298;51.252;6.802;2022-09-09T02:50:34;16.70;99.90
2577;DHT22;1298;51.252;6.802;2022-09-09T02:53:20;16.70;99.90
2577;DHT22;1298;51.252;6.802;2022-09-09T02:56:08;16.70;99.90
2577;DHT22;1298;51.252;6.802;2022-09-09T02:58:54;16.70;99.90
2577;DHT22;1298;51.252;6.802;2022-09-09T03:01:39;16.70;99.90
2577;DHT22;1298;51.252;6.802;2022-09-09T03:04:24;16.70;99.90
2577;DHT22;1298;51.252;6.802;2022-09-09T03:07:11;16.70;99.90
2577;DHT22;1298;51.252;6.802;2022-09-09T03:09:57;16.70;99.90
2577;DHT22;1298;51.252;6.802;2022-09-09T03:12:42;16.70;99.90
2577;DHT22;1298;51.252;6.802;2022-09-09T03:15:27;16.70;99.90
2577;DHT22;1298;51.252;6.802;2022-09-09T03:18:15;16.70;99.90
2577;DHT22;1298;51.252;6.802;2022-09-09T03:21:00;16.70;99.90
2577;DHT22;1298;51.252;6.802;2022-09-09T03:23:47;16.70;99.90
2577;DHT22;1298;51.252;6.802;2022-09-09T03:26:32;16.70;99.90
2577;DHT22;1298;51.252;6.802;2022-09-09T03:29:17;16.70;99.90
2577;DHT22;1298;51.252;6.802;2022-09-09T03:32:03;16.70;99.90
2577;DHT22;1298;51.252;6.802;2022-09-09T03:34:48;16.70;99.90
2577;DHT22;1298;51.252;6.802;2022-09-09T03:37:33;16.70;99.90
2577;DHT22;1298;51.252;6.802;2022-09-09T03:40:19;16.70;99.90
2577;DHT22;1298;51.252;6.802;2022-09-09T03:43:05;16.70;99.90
2577;DHT22;1298;51.252;6.802;2022-09-09T03:45:51;16.70;99.90
2577;DHT22;1298;51.252;6.802;2022-09-09T03:48:36;16.70;99.90
2577;DHT22;1298;51.252;6.802;2022-09-09T03:51:21;16.70;99.90
2577;DHT22;1298;51.252;6.802;2022-09-09T03:54:06;16.70;99.90
2577;DHT22;1298;51.252;6.802;2022-09-09T03:56:55;16.60;99.90
2577;DHT22;1298;51.252;6.802;2022-09-09T03:59:40;16.60;99.90
2577;DHT22;1298;51.252;6.802;2022-09-09T04:02:25;16.60;99.90
2577;DHT22;1298;51.252;6.802;2022-09-09T04:05:10;16.50;99.90
2577;DHT22;1298;51.252;6.802;2022-09-09T04:07:55;16.50;99.90
2577;DHT22;1298;51.252;6.802;2022-09-09T04:10:40;16.50;99.90
2577;DHT22;1298;51.252;6.802;2022-09-09T04:13:27;16.50;99.90
2577;DHT22;1298;51.252;6.802;2022-09-09T04:16:12;16.60;99.90
2577;DHT22;1298;51.252;6.802;2022-09-09T04:18:58;16.50;99.90
2577;DHT22;1298;51.252;6.802;2022-09-09T04:21:45;16.50;99.90
2577;DHT22;1298;51.252;6.802;2022-09-09T04:24:30;16.60;99.90
2577;DHT22;1298;51.252;6.802;2022-09-09T04:27:15;16.60;99.90
2577;DHT22;1298;51.252;6.802;2022-09-09T04:30:02;16.70;99.90
2577;DHT22;1298;51.252;6.802;2022-09-09T04:32:47;16.70;99.90
2577;DHT22;1298;51.252;6.802;2022-09-09T04:35:33;16.70;99.90
2577;DHT22;1298;51.252;6.802;2022-09-09T04:38:19;16.80;99.90
2577;DHT22;1298;51.252;6.802;2022-09-09T04:41:06;16.80;99.90
2577;DHT22;1298;51.252;6.802;2022-09-09T04:43:55;16.80;99.90
2577;DHT22;1298;51.252;6.802;2022-09-09T04:46:41;16.80;99.90
2577;DHT22;1298;51.252;6.802;2022-09-09T04:49:27;16.90;99.90
2577;DHT22;1298;51.252;6.802;2022-09-09T04:52:15;16.90;99.90
2577;DHT22;1298;51.252;6.802;2022-09-09T04:55:00;16.90;99.90
2577;DHT22;1298;51.252;6.802;2022-09-09T04:57:46;16.90;99.90
2577;DHT22;1298;51.252;6.802;2022-09-09T05:00:32;16.90;99.90
2577;DHT22;1298;51.252;6.802;2022-09-09T05:03:18;17.00;99.90
2577;DHT22;1298;51.252;6.802;2022-09-09T05:06:04;17.00;99.90
2577;DHT22;1298;51.252;6.802;2022-09-09T05:08:50;17.00;99.90
2577;DHT22;1298;51.252;6.802;2022-09-09T05:11:35;17.00;99.90
2577;DHT22;1298;51.252;6.802;2022-09-09T05:14:21;17.00;99.90
2577;DHT22;1298;51.252;6.802;2022-09-09T05:17:07;17.00;99.90
2577;DHT22;1298;51.252;6.802;2022-09-09T05:19:54;17.00;99.90
2577;DHT22;1298;51.252;6.802;2022-09-09T05:22:39;17.10;99.90
2577;DHT22;1298;51.252;6.802;2022-09-09T05:25:25;17.00;99.90
2577;DHT22;1298;51.252;6.802;2022-09-09T05:28:10;17.00;99.90
2577;DHT22;1298;51.252;6.802;2022-09-09T05:30:56;17.10;99.90
2577;DHT22;1298;51.252;6.802;2022-09-09T05:33:43;17.10;99.90
2577;DHT22;1298;51.252;6.802;2022-09-09T05:36:31;17.10;99.90
2577;DHT22;1298;51.252;6.802;2022-09-09T05:39:16;17.20;99.90
2577;DHT22;1298;51.252;6.802;2022-09-09T05:42:01;17.20;99.90
2577;DHT22;1298;51.252;6.802;2022-09-09T05:44:48;17.20;99.90
2577;DHT22;1298;51.252;6.802;2022-09-09T05:47:35;17.20;99.90
2577;DHT22;1298;51.252;6.802;2022-09-09T05:50:21;17.30;99.90
2577;DHT22;1298;51.252;6.802;2022-09-09T05:53:07;17.30;99.90
2577;DHT22;1298;51.252;6.802;2022-09-09T05:55:59;17.40;99.90
2577;DHT22;1298;51.252;6.802;2022-09-09T05:58:45;17.50;99.90
2577;DHT22;1298;51.252;6.802;2022-09-09T06:01:34;17.50;99.90
2577;DHT22;1298;51.252;6.802;2022-09-09T06:04:19;17.60;99.90
2577;DHT22;1298;51.252;6.802;2022-09-09T06:07:06;17.60;99.90
2577;DHT22;1298;51.252;6.802;2022-09-09T06:09:52;17.60;99.90
2577;DHT22;1298;51.252;6.802;2022-09-09T06:12:38;17.70;99.90
2577;DHT22;1298;51.252;6.802;2022-09-09T06:15:23;17.70;99.90
2577;DHT22;1298;51.252;6.802;2022-09-09T06:18:08;17.80;99.90
2577;DHT22;1298;51.252;6.802;2022-09-09T06:20:55;17.80;99.90
2577;DHT22;1298;51.252;6.802;2022-09-09T06:23:40;17.90;99.90
2577;DHT22;1298;51.252;6.802;2022-09-09T06:26:27;18.00;99.90
2577;DHT22;1298;51.252;6.802;2022-09-09T06:29:12;18.10;99.90
2577;DHT22;1298;51.252;6.802;2022-09-09T06:31:58;18.00;99.90
2577;DHT22;1298;51.252;6.802;2022-09-09T06:34:44;18.00;99.90
2577;DHT22;1298;51.252;6.802;2022-09-09T06:37:31;18.00;99.90
2577;DHT22;1298;51.252;6.802;2022-09-09T06:40:16;18.00;99.90
2577;DHT22;1298;51.252;6.802;2022-09-09T06:43:03;18.00;99.90
2577;DHT22;1298;51.252;6.802;2022-09-09T06:45:59;18.00;99.90
2577;DHT22;1298;51.252;6.802;2022-09-09T06:48:45;18.00;99.90
2577;DHT22;1298;51.252;6.802;2022-09-09T06:51:33;18.00;99.90
2577;DHT22;1298;51.252;6.802;2022-09-09T06:54:19;18.10;99.90
2577;DHT22;1298;51.252;6.802;2022-09-09T06:57:06;18.10;99.90
2577;DHT22;1298;51.252;6.802;2022-09-09T06:59:53;18.00;99.90
2577;DHT22;1298;51.252;6.802;2022-09-09T07:02:38;18.10;99.90
2577;DHT22;1298;51.252;6.802;2022-09-09T07:05:25;18.10;99.90
2577;DHT22;1298;51.252;6.802;2022-09-09T07:08:10;18.10;99.90
2577;DHT22;1298;51.252;6.802;2022-09-09T07:11:01;18.20;99.90
2577;DHT22;1298;51.252;6.802;2022-09-09T07:13:46;18.30;99.90
2577;DHT22;1298;51.252;6.802;2022-09-09T07:16:34;18.40;99.90
2577;DHT22;1298;51.252;6.802;2022-09-09T07:19:21;18.50;99.90
2577;DHT22;1298;51.252;6.802;2022-09-09T07:22:06;18.50;99.90
2577;DHT22;1298;51.252;6.802;2022-09-09T07:24:53;18.40;99.90
2577;DHT22;1298;51.252;6.802;2022-09-09T07:27:38;18.50;99.90
2577;DHT22;1298;51.252;6.802;2022-09-09T07:30:24;18.60;99.90
2577;DHT22;1298;51.252;6.802;2022-09-09T07:33:11;18.70;99.90
2577;DHT22;1298;51.252;6.802;2022-09-09T07:36:04;18.80;99.90
2577;DHT22;1298;51.252;6.802;2022-09-09T07:38:50;18.80;99.90
2577;DHT22;1298;51.252;6.802;2022-09-09T07:41:39;18.80;99.90
2577;DHT22;1298;51.252;6.802;2022-09-09T07:44:25;18.70;99.90
2577;DHT22;1298;51.252;6.802;2022-09-09T07:47:12;18.70;99.90
2577;DHT22;1298;51.252;6.802;2022-09-09T07:49:58;18.90;99.90
2577;DHT22;1298;51.252;6.802;2022-09-09T07:52:44;18.90;99.90
2577;DHT22;1298;51.252;6.802;2022-09-09T07:55:29;18.90;99.90
2577;DHT22;1298;51.252;6.802;2022-09-09T07:58:14;18.80;99.90
2577;DHT22;1298;51.252;6.802;2022-09-09T08:00:59;18.80;99.90
2577;DHT22;1298;51.252;6.802;2022-09-09T08:03:45;18.70;99.90
2577;DHT22;1298;51.252;6.802;2022-09-09T08:06:34;18.60;99.90
2577;DHT22;1298;51.252;6.802;2022-09-09T08:09:20;18.70;99.90
2577;DHT22;1298;51.252;6.802;2022-09-09T08:12:06;18.70;99.90
2577;DHT22;1298;51.252;6.802;2022-09-09T08:14:53;18.80;99.90
2577;DHT22;1298;51.252;6.802;2022-09-09T08:17:38;18.90;99.90
2577;DHT22;1298;51.252;6.802;2022-09-09T08:20:24;19.00;99.90
2577;DHT22;1298;51.252;6.802;2022-09-09T08:23:10;19.10;99.90
2577;DHT22;1298;51.252;6.802;2022-09-09T08:26:03;19.20;99.90
2577;DHT22;1298;51.252;6.802;2022-09-09T08:28:49;19.30;99.90
2577;DHT22;1298;51.252;6.802;2022-09-09T08:31:36;19.30;99.90
2577;DHT22;1298;51.252;6.802;2022-09-09T08:34:21;19.40;99.90
2577;DHT22;1298;51.252;6.802;2022-09-09T08:37:07;19.60;99.90
2577;DHT22;1298;51.252;6.802;2022-09-09T08:39:54;19.70;99.90
2577;DHT22;1298;51.252;6.802;2022-09-09T08:42:40;19.60;99.90
2577;DHT22;1298;51.252;6.802;2022-09-09T08:45:33;19.60;99.90
2577;DHT22;1298;51.252;6.802;2022-09-09T08:48:26;19.60;99.90
2577;DHT22;1298;51.252;6.802;2022-09-09T08:51:17;19.70;99.90
2577;DHT22;1298;51.252;6.802;2022-09-09T08:54:03;19.90;99.90
2577;DHT22;1298;51.252;6.802;2022-09-09T08:56:50;20.10;99.90
2577;DHT22;1298;51.252;6.802;2022-09-09T08:59:35;20.20;99.90
2577;DHT22;1298;51.252;6.802;2022-09-09T09:02:22;20.20;99.90
2577;DHT22;1298;51.252;6.802;2022-09-09T09:05:15;20.20;99.90
2577;DHT22;1298;51.252;6.802;2022-09-09T09:08:05;20.10;99.90
2577;DHT22;1298;51.252;6.802;2022-09-09T09:10:55;20.10;99.90
2577;DHT22;1298;51.252;6.802;2022-09-09T09:13:44;20.00;99.90
2577;DHT22;1298;51.252;6.802;2022-09-09T09:16:31;19.80;99.90
2577;DHT22;1298;51.252;6.802;2022-09-09T09:19:17;19.80;99.90
2577;DHT22;1298;51.252;6.802;2022-09-09T09:22:10;19.80;99.90
2577;DHT22;1298;51.252;6.802;2022-09-09T09:25:01;19.70;99.90
2577;DHT22;1298;51.252;6.802;2022-09-09T09:27:50;19.60;99.90
2577;DHT22;1298;51.252;6.802;2022-09-09T09:30:40;19.60;99.90
2577;DHT22;1298;51.252;6.802;2022-09-09T09:33:27;19.70;99.90
2577;DHT22;1298;51.252;6.802;2022-09-09T09:36:16;19.70;99.90
2577;DHT22;1298;51.252;6.802;2022-09-09T09:39:02;19.50;99.90
2577;DHT22;1298;51.252;6.802;2022-09-09T09:41:49;19.60;99.90
2577;DHT22;1298;51.252;6.802;2022-09-09T09:44:34;19.80;99.90
2577;DHT22;1298;51.252;6.802;2022-09-09T09:47:22;19.80;99.90
2577;DHT22;1298;51.252;6.802;2022-09-09T09:50:16;19.80;99.90
2577;DHT22;1298;51.252;6.802;2022-09-09T09:53:03;20.00;99.90
2577;DHT22;1298;51.252;6.802;2022-09-09T09:55:50;20.00;99.90
2577;DHT22;1298;51.252;6.802;2022-09-09T09:58:38;20.10;99.90
2577;DHT22;1298;51.252;6.802;2022-09-09T10:01:33;20.20;99.90
2577;DHT22;1298;51.252;6.802;2022-09-09T10:04:22;20.30;99.90
2577;DHT22;1298;51.252;6.802;2022-09-09T10:07:09;20.30;99.90
2577;DHT22;1298;51.252;6.802;2022-09-09T10:09:55;20.30;99.90
2577;DHT22;1298;51.252;6.802;2022-09-09T10:12:44;20.50;99.90
2577;DHT22;1298;51.252;6.802;2022-09-09T10:15:41;20.60;99.90
2577;DHT22;1298;51.252;6.802;2022-09-09T10:18:48;20.70;99.90
2577;DHT22;1298;51.252;6.802;2022-09-09T10:21:55;20.80;99.90
2577;DHT22;1298;51.252;6.802;2022-09-09T10:24:52;20.60;99.90
2577;DHT22;1298;51.252;6.802;2022-09-09T10:27:49;20.50;99.90
2577;DHT22;1298;51.252;6.802;2022-09-09T10:30:49;20.60;99.90
2577;DHT22;1298;51.252;6.802;2022-09-09T10:33:37;20.90;99.90
2577;DHT22;1298;51.252;6.802;2022-09-09T10:36:26;21.00;99.90
2577;DHT22;1298;51.252;6.802;2022-09-09T10:39:23;20.90;99.90
2577;DHT22;1298;51.252;6.802;2022-09-09T10:42:14;20.70;99.90
2577;DHT22;1298;51.252;6.802;2022-09-09T10:45:03;20.70;99.90
2577;DHT22;1298;51.252;6.802;2022-09-09T10:48:09;20.90;99.90
2577;DHT22;1298;51.252;6.802;2022-09-09T10:51:11;21.10;99.90
2577;DHT22;1298;51.252;6.802;2022-09-09T10:54:16;21.30;99.90
2577;DHT22;1298;51.252;6.802;2022-09-09T10:57:23;21.40;99.90
2577;DHT22;1298;51.252;6.802;2022-09-09T11:00:16;21.50;99.90
2577;DHT22;1298;51.252;6.802;2022-09-09T11:03:03;21.20;99.90
2577;DHT22;1298;51.252;6.802;2022-09-09T11:05:54;21.40;99.90
2577;DHT22;1298;51.252;6.802;2022-09-09T11:08:41;21.40;99.90
2577;DHT22;1298;51.252;6.802;2022-09-09T11:11:32;21.30;99.90
2577;DHT22;1298;51.252;6.802;2022-09-09T11:14:23;21.50;99.90
2577;DHT22;1298;51.252;6.802;2022-09-09T11:17:12;21.80;99.90
2577;DHT22;1298;51.252;6.802;2022-09-09T11:19:59;21.30;99.90
2577;DHT22;1298;51.252;6.802;2022-09-09T11:22:46;21.10;99.90
2577;DHT22;1298;51.252;6.802;2022-09-09T11:25:35;20.80;99.90
2577;DHT22;1298;51.252;6.802;2022-09-09T11:28:27;20.60;99.90
2577;DHT22;1298;51.252;6.802;2022-09-09T11:31:21;20.60;99.90
2577;DHT22;1298;51.252;6.802;2022-09-09T11:34:18;20.80;99.90
2577;DHT22;1298;51.252;6.802;2022-09-09T11:37:17;20.70;99.90
2577;DHT22;1298;51.252;6.802;2022-09-09T11:40:08;20.20;99.90
2577;DHT22;1298;51.252;6.802;2022-09-09T11:43:03;20.30;99.90
2577;DHT22;1298;51.252;6.802;2022-09-09T11:45:52;20.60;99.90
2577;DHT22;1298;51.252;6.802;2022-09-09T11:48:41;21.10;99.90
2577;DHT22;1298;51.252;6.802;2022-09-09T11:51:31;21.30;99.90
2577;DHT22;1298;51.252;6.802;2022-09-09T11:54:26;21.00;99.90
2577;DHT22;1298;51.252;6.802;2022-09-09T11:57:17;20.90;99.90
2577;DHT22;1298;51.252;6.802;2022-09-09T12:00:06;21.00;99.90
2577;DHT22;1298;51.252;6.802;2022-09-09T12:02:54;21.00;99.90
2577;DHT22;1298;51.252;6.802;2022-09-09T12:05:40;21.00;99.90
2577;DHT22;1298;51.252;6.802;2022-09-09T12:08:27;20.90;99.90
2577;DHT22;1298;51.252;6.802;2022-09-09T12:11:22;20.70;99.90
2577;DHT22;1298;51.252;6.802;2022-09-09T12:14:20;20.60;99.90
2577;DHT22;1298;51.252;6.802;2022-09-09T12:17:15;20.30;99.90
2577;DHT22;1298;51.252;6.802;2022-09-09T12:20:08;20.50;99.90
2577;DHT22;1298;51.252;6.802;2022-09-09T12:23:00;21.00;99.90
2577;DHT22;1298;51.252;6.802;2022-09-09T12:25:54;21.00;99.90
2577;DHT22;1298;51.252;6.802;2022-09-09T12:28:45;21.00;99.90
2577;DHT22;1298;51.252;6.802;2022-09-09T12:31:35;21.40;99.90
2577;DHT22;1298;51.252;6.802;2022-09-09T12:34:28;21.30;99.90
2577;DHT22;1298;51.252;6.802;2022-09-09T12:37:24;21.60;99.90
2577;DHT22;1298;51.252;6.802;2022-09-09T12:40:19;21.40;99.90
2577;DHT22;1298;51.252;6.802;2022-09-09T12:43:17;21.20;99.90
2577;DHT22;1298;51.252;6.802;2022-09-09T12:46:06;20.90;99.90
2577;DHT22;1298;51.252;6.802;2022-09-09T12:48:53;21.00;99.90
2577;DHT22;1298;51.252;6.802;2022-09-09T12:51:39;20.60;99.90
2577;DHT22;1298;51.252;6.802;2022-09-09T12:54:29;20.60;99.90
2577;DHT22;1298;51.252;6.802;2022-09-09T12:57:15;20.50;99.90
2577;DHT22;1298;51.252;6.802;2022-09-09T13:00:16;20.60;99.90
2577;DHT22;1298;51.252;6.802;2022-09-09T13:03:02;20.90;99.90
2577;DHT22;1298;51.252;6.802;2022-09-09T13:05:49;20.90;99.90
2577;DHT22;1298;51.252;6.802;2022-09-09T13:08:34;21.00;99.90
2577;DHT22;1298;51.252;6.802;2022-09-09T13:11:22;21.00;99.90
2577;DHT22;1298;51.252;6.802;2022-09-09T13:14:15;20.80;99.90
2577;DHT22;1298;51.252;6.802;2022-09-09T13:17:04;20.60;99.90
2577;DHT22;1298;51.252;6.802;2022-09-09T13:19:50;20.50;99.90
2577;DHT22;1298;51.252;6.802;2022-09-09T13:22:38;20.30;99.90
2577;DHT22;1298;51.252;6.802;2022-09-09T13:25:25;20.20;99.90
2577;DHT22;1298;51.252;6.802;2022-09-09T13:28:21;20.20;99.90
2577;DHT22;1298;51.252;6.802;2022-09-09T13:31:20;20.30;99.90
2577;DHT22;1298;51.252;6.802;2022-09-09T13:34:11;20.30;99.90
2577;DHT22;1298;51.252;6.802;2022-09-09T13:37:00;20.50;99.90
2577;DHT22;1298;51.252;6.802;2022-09-09T13:39:51;20.60;99.90
2577;DHT22;1298;51.252;6.802;2022-09-09T13:42:40;20.70;99.90
2577;DHT22;1298;51.252;6.802;2022-09-09T13:45:29;20.60;99.90
2577;DHT22;1298;51.252;6.802;2022-09-09T13:48:18;20.90;99.90
2577;DHT22;1298;51.252;6.802;2022-09-09T13:51:04;21.00;99.90
2577;DHT22;1298;51.252;6.802;2022-09-09T13:53:50;20.90;99.90
2577;DHT22;1298;51.252;6.802;2022-09-09T13:56:37;20.80;99.90
2577;DHT22;1298;51.252;6.802;2022-09-09T13:59:23;20.60;99.90
2577;DHT22;1298;51.252;6.802;2022-09-09T14:02:11;20.60;99.90
2577;DHT22;1298;51.252;6.802;2022-09-09T14:04:57;20.50;99.90
2577;DHT22;1298;51.252;6.802;2022-09-09T14:07:43;20.30;99.90
2577;DHT22;1298;51.252;6.802;2022-09-09T14:10:28;20.60;99.90
2577;DHT22;1298;51.252;6.802;2022-09-09T14:13:14;20.70;99.90
2577;DHT22;1298;51.252;6.802;2022-09-09T14:15:59;20.70;99.90
2577;DHT22;1298;51.252;6.802;2022-09-09T14:18:46;21.30;99.90
2577;DHT22;1298;51.252;6.802;2022-09-09T14:21:32;22.30;99.90
2577;DHT22;1298;51.252;6.802;2022-09-09T14:24:17;22.20;99.90
2577;DHT22;1298;51.252;6.802;2022-09-09T14:27:03;22.10;99.90
2577;DHT22;1298;51.252;6.802;2022-09-09T14:29:49;22.10;99.90
2577;DHT22;1298;51.252;6.802;2022-09-09T14:32:35;21.80;99.90
2577;DHT22;1298;51.252;6.802;2022-09-09T14:35:21;21.20;99.90
2577;DHT22;1298;51.252;6.802;2022-09-09T14:38:08;20.40;99.90
2577;DHT22;1298;51.252;6.802;2022-09-09T14:40:54;19.80;99.90
2577;DHT22;1298;51.252;6.802;2022-09-09T14:43:40;19.40;99.90
2577;DHT22;1298;51.252;6.802;2022-09-09T14:46:26;19.00;99.90
2577;DHT22;1298;51.252;6.802;2022-09-09T14:49:12;18.60;99.90
2577;DHT22;1298;51.252;6.802;2022-09-09T14:51:59;18.30;99.90
2577;DHT22;1298;51.252;6.802;2022-09-09T14:54:45;18.10;99.90
2577;DHT22;1298;51.252;6.802;2022-09-09T14:57:31;18.00;99.90
2577;DHT22;1298;51.252;6.802;2022-09-09T15:00:17;17.90;99.90
2577;DHT22;1298;51.252;6.802;2022-09-09T15:03:02;17.60;99.90
2577;DHT22;1298;51.252;6.802;2022-09-09T15:05:48;17.30;99.90
2577;DHT22;1298;51.252;6.802;2022-09-09T15:08:35;17.10;99.90
2577;DHT22;1298;51.252;6.802;2022-09-09T15:11:20;16.80;99.90
2577;DHT22;1298;51.252;6.802;2022-09-09T15:14:09;16.70;99.90
2577;DHT22;1298;51.252;6.802;2022-09-09T15:16:56;16.70;99.90
2577;DHT22;1298;51.252;6.802;2022-09-09T15:19:41;16.90;99.90
2577;DHT22;1298;51.252;6.802;2022-09-09T15:22:27;17.20;99.90
2577;DHT22;1298;51.252;6.802;2022-09-09T15:25:14;17.50;99.90
2577;DHT22;1298;51.252;6.802;2022-09-09T15:28:01;17.80;99.90
2577;DHT22;1298;51.252;6.802;2022-09-09T15:30:48;18.20;99.90
2577;DHT22;1298;51.252;6.802;2022-09-09T15:33:34;18.60;99.90
2577;DHT22;1298;51.252;6.802;2022-09-09T15:36:22;19.50;99.90
2577;DHT22;1298;51.252;6.802;2022-09-09T15:39:09;20.10;99.90
2577;DHT22;1298;51.252;6.802;2022-09-09T15:41:57;20.30;99.90
2577;DHT22;1298;51.252;6.802;2022-09-09T15:44:48;20.30;99.90
2577;DHT22;1298;51.252;6.802;2022-09-09T15:47:36;20.30;99.90
2577;DHT22;1298;51.252;6.802;2022-09-09T15:50:21;20.30;99.90
2577;DHT22;1298;51.252;6.802;2022-09-09T15:53:07;20.20;99.90
2577;DHT22;1298;51.252;6.802;2022-09-09T15:55:55;20.10;99.90
2577;DHT22;1298;51.252;6.802;2022-09-09T15:58:41;19.80;99.90
2577;DHT22;1298;51.252;6.802;2022-09-09T16:01:27;19.50;99.90
2577;DHT22;1298;51.252;6.802;2022-09-09T16:04:13;18.60;99.90
2577;DHT22;1298;51.252;6.802;2022-09-09T16:07:01;18.30;99.90
2577;DHT22;1298;51.252;6.802;2022-09-09T16:09:47;18.20;99.90
2577;DHT22;1298;51.252;6.802;2022-09-09T16:12:35;18.40;99.90
2577;DHT22;1298;51.252;6.802;2022-09-09T16:15:22;19.10;99.90
2577;DHT22;1298;51.252;6.802;2022-09-09T16:18:07;19.60;99.90
2577;DHT22;1298;51.252;6.802;2022-09-09T16:20:54;19.90;99.90
2577;DHT22;1298;51.252;6.802;2022-09-09T16:23:40;19.90;99.90
2577;DHT22;1298;51.252;6.802;2022-09-09T16:26:26;19.80;99.90
2577;DHT22;1298;51.252;6.802;2022-09-09T16:29:12;19.70;99.90
2577;DHT22;1298;51.252;6.802;2022-09-09T16:31:59;19.50;99.90
2577;DHT22;1298;51.252;6.802;2022-09-09T16:34:44;19.20;99.90
2577;DHT22;1298;51.252;6.802;2022-09-09T16:37:30;19.00;99.90
2577;DHT22;1298;51.252;6.802;2022-09-09T16:40:18;18.80;99.90
2577;DHT22;1298;51.252;6.802;2022-09-09T16:43:03;18.60;99.90
2577;DHT22;1298;51.252;6.802;2022-09-09T16:45:49;18.40;99.90
2577;DHT22;1298;51.252;6.802;2022-09-09T16:48:36;18.20;99.90
2577;DHT22;1298;51.252;6.802;2022-09-09T16:51:23;18.10;99.90
2577;DHT22;1298;51.252;6.802;2022-09-09T16:54:10;18.10;99.90
2577;DHT22;1298;51.252;6.802;2022-09-09T16:56:59;18.20;99.90
2577;DHT22;1298;51.252;6.802;2022-09-09T16:59:44;18.60;99.90
2577;DHT22;1298;51.252;6.802;2022-09-09T17:02:30;19.30;99.90
2577;DHT22;1298;51.252;6.802;2022-09-09T17:05:17;20.00;99.90
2577;DHT22;1298;51.252;6.802;2022-09-09T17:08:02;20.30;99.90
2577;DHT22;1298;51.252;6.802;2022-09-09T17:10:49;20.60;99.90
2577;DHT22;1298;51.252;6.802;2022-09-09T17:13:35;20.20;99.90
2577;DHT22;1298;51.252;6.802;2022-09-09T17:16:22;19.70;99.90
2577;DHT22;1298;51.252;6.802;2022-09-09T17:19:09;19.50;99.90
2577;DHT22;1298;51.252;6.802;2022-09-09T17:21:56;19.20;99.90
2577;DHT22;1298;51.252;6.802;2022-09-09T17:24:42;19.00;99.90
2577;DHT22;1298;51.252;6.802;2022-09-09T17:27:28;18.70;99.90
2577;DHT22;1298;51.252;6.802;2022-09-09T17:30:15;18.40;99.90
2577;DHT22;1298;51.252;6.802;2022-09-09T17:33:01;18.30;99.90
2577;DHT22;1298;51.252;6.802;2022-09-09T17:35:46;18.10;99.90
2577;DHT22;1298;51.252;6.802;2022-09-09T17:38:34;17.90;99.90
2577;DHT22;1298;51.252;6.802;2022-09-09T17:41:21;17.80;99.90
2577;DHT22;1298;51.252;6.802;2022-09-09T17:44:07;17.80;99.90
2577;DHT22;1298;51.252;6.802;2022-09-09T17:46:53;17.70;99.90
2577;DHT22;1298;51.252;6.802;2022-09-09T17:49:40;17.70;99.90
2577;DHT22;1298;51.252;6.802;2022-09-09T17:52:26;17.70;99.90
2577;DHT22;1298;51.252;6.802;2022-09-09T17:55:13;17.60;99.90
2577;DHT22;1298;51.252;6.802;2022-09-09T17:57:59;17.60;99.90
2577;DHT22;1298;51.252;6.802;2022-09-09T18:00:44;17.60;99.90
2577;DHT22;1298;51.252;6.802;2022-09-09T18:03:31;17.60;99.90
2577;DHT22;1298;51.252;6.802;2022-09-09T18:06:20;17.50;99.90
2577;DHT22;1298;51.252;6.802;2022-09-09T18:09:07;17.40;99.90
2577;DHT22;1298;51.252;6.802;2022-09-09T18:11:56;17.40;99.90
2577;DHT22;1298;51.252;6.802;2022-09-09T18:14:41;17.30;99.90
2577;DHT22;1298;51.252;6.802;2022-09-09T18:17:27;17.30;99.90